Time;durP1;ratioP1;P1;durP2;ratioP2;P2;SDS_P1;SDS_P2;PMS_P1;PMS_P2;Temp;Humidity;BMP_temperature;BMP_pressure;BME280_temperature;BME280_humidity;BME280_pressure;Samples;Min_cycle;Max_cycle;Signal;HPM_P1;HPM_P2
2022/08/28 00:00:22;;;;;;;9.15;8.35;;;;;;;;;;5035977;28;24494;-48
2022/08/28 00:02:48;;;;;;;8.90;8.10;;;;;;;;;;5041318;28;24481;-48
2022/08/28 00:05:16;;;;;;;9.90;8.90;;;;;;;;;;5042924;28;24906;-48
2022/08/28 00:07:41;;;;;;;8.38;7.00;;;;;;;;;;5038747;28;24630;-49
2022/08/28 00:10:07;;;;;;;9.00;8.20;;;;;;;;;;5039672;28;24910;-48
2022/08/28 00:12:33;;;;;;;8.50;7.70;;;;;;;;;;5030526;28;24424;-48
2022/08/28 00:14:58;;;;;;;9.10;8.20;;;;;;;;;;5037977;28;24423;-48
2022/08/28 00:17:24;;;;;;;9.90;9.00;;;;;;;;;;5030961;28;24501;-48
2022/08/28 00:19:49;;;;;;;9.17;8.27;;;;;;;;;;5032627;28;24427;-49
2022/08/28 00:22:14;;;;;;;10.73;9.73;;;;;;;;;;5032150;28;24427;-47
2022/08/28 00:24:41;;;;;;;10.30;9.40;;;;;;;;;;5026434;28;24762;-46
2022/08/28 00:29:50;;;;;;;10.20;9.20;;;;;;;;;;5035095;28;24491;-48
2022/08/28 00:32:15;;;;;;;12.13;10.83;;;;;;;;;;5039950;28;24424;-47
2022/08/28 00:34:40;;;;;;;13.67;12.27;;;;;;;;;;5034571;28;24439;-47
2022/08/28 00:37:05;;;;;;;14.05;12.25;;;;;;;;;;5042763;28;24462;-48
2022/08/28 00:39:31;;;;;;;13.73;12.37;;;;;;;;;;5031948;28;24427;-47
2022/08/28 00:41:56;;;;;;;15.38;12.73;;;;;;;;;;5032989;28;24467;-47
2022/08/28 00:44:23;;;;;;;17.60;14.00;;;;;;;;;;5038340;28;24454;-47
2022/08/28 00:46:49;;;;;;;14.13;12.63;;;;;;;;;;5036846;28;24461;-47
2022/08/28 00:49:16;;;;;;;15.27;13.10;;;;;;;;;;5037081;28;24428;-47
2022/08/28 00:54:26;;;;;;;15.10;13.38;;;;;;;;;;5031413;28;24433;-47
2022/08/28 00:56:53;;;;;;;14.13;12.73;;;;;;;;;;5038351;28;25335;-47
2022/08/28 00:59:19;;;;;;;15.68;12.90;;;;;;;;;;5031121;28;24439;-47
2022/08/28 01:01:45;;;;;;;14.65;12.82;;;;;;;;;;5034361;28;24419;-47
2022/08/28 01:04:20;;;;;;;15.25;12.88;;;;;;;;;;5037929;28;24429;-47
2022/08/28 01:06:47;;;;;;;15.80;13.95;;;;;;;;;;5044002;28;24503;-47
2022/08/28 01:09:13;;;;;;;14.38;12.88;;;;;;;;;;5031734;28;25024;-47
2022/08/28 01:11:40;;;;;;;15.65;13.80;;;;;;;;;;5033026;28;24435;-48
2022/08/28 01:14:05;;;;;;;16.42;14.35;;;;;;;;;;5038616;28;24427;-47
2022/08/28 01:16:31;;;;;;;15.33;13.63;;;;;;;;;;5025427;28;24424;-47
2022/08/28 01:18:56;;;;;;;17.77;14.98;;;;;;;;;;5039389;28;24510;-47
2022/08/28 01:21:32;;;;;;;15.33;13.77;;;;;;;;;;5042477;28;24737;-48
2022/08/28 01:24:00;;;;;;;16.40;13.77;;;;;;;;;;5029903;28;24435;-46
2022/08/28 01:26:27;;;;;;;18.95;16.02;;;;;;;;;;5045503;28;24534;-48
2022/08/28 01:28:52;;;;;;;16.77;14.32;;;;;;;;;;5033978;28;24463;-47
2022/08/28 01:31:17;;;;;;;19.83;15.10;;;;;;;;;;5043553;28;24500;-46
2022/08/28 01:33:43;;;;;;;16.70;15.00;;;;;;;;;;5040175;28;24494;-47
2022/08/28 01:36:10;;;;;;;15.35;13.75;;;;;;;;;;5034032;28;24419;-48
2022/08/28 01:38:36;;;;;;;14.60;13.15;;;;;;;;;;5043244;28;24824;-47
2022/08/28 01:41:01;;;;;;;15.30;13.70;;;;;;;;;;5037143;28;24416;-47
2022/08/28 01:43:26;;;;;;;15.98;14.38;;;;;;;;;;5037313;28;24444;-46
2022/08/28 01:45:54;;;;;;;17.60;15.70;;;;;;;;;;5030118;28;24408;-46
2022/08/28 01:48:20;;;;;;;16.00;14.40;;;;;;;;;;5029783;28;24424;-48
2022/08/28 01:50:46;;;;;;;17.10;14.20;;;;;;;;;;5039207;28;24732;-47
2022/08/28 01:53:13;;;;;;;14.85;13.07;;;;;;;;;;5032714;28;24471;-47
2022/08/28 01:55:38;;;;;;;16.63;14.02;;;;;;;;;;5031228;28;24454;-46
2022/08/28 01:58:04;;;;;;;15.63;14.02;;;;;;;;;;5036417;28;24805;-47
2022/08/28 02:00:30;;;;;;;17.08;15.30;;;;;;;;;;5030278;28;25043;-47
2022/08/28 02:02:56;;;;;;;16.92;15.13;;;;;;;;;;5044710;28;24435;-47
2022/08/28 02:05:22;;;;;;;16.13;13.60;;;;;;;;;;5043233;28;24452;-47
2022/08/28 02:07:48;;;;;;;17.07;14.93;;;;;;;;;;5044572;28;24813;-47
2022/08/28 02:10:13;;;;;;;16.40;14.50;;;;;;;;;;5033960;28;24985;-47
2022/08/28 02:12:39;;;;;;;18.63;15.90;;;;;;;;;;5043458;28;25012;-47
2022/08/28 02:15:06;;;;;;;23.60;18.10;;;;;;;;;;5036675;28;25032;-47
2022/08/28 02:17:31;;;;;;;22.05;18.98;;;;;;;;;;5034700;28;24489;-48
2022/08/28 02:19:58;;;;;;;21.92;18.17;;;;;;;;;;5047652;28;24427;-48
2022/08/28 02:22:23;;;;;;;20.45;18.10;;;;;;;;;;5038520;28;24957;-48
2022/08/28 02:24:48;;;;;;;23.03;17.60;;;;;;;;;;5034941;28;24461;-48
2022/08/28 02:27:13;;;;;;;22.00;18.70;;;;;;;;;;5049291;28;24404;-46
2022/08/28 02:29:38;;;;;;;19.05;16.85;;;;;;;;;;5047334;28;24426;-47
2022/08/28 02:32:04;;;;;;;19.03;16.90;;;;;;;;;;5036666;28;24526;-46
2022/08/28 02:34:30;;;;;;;19.13;17.13;;;;;;;;;;5030647;28;24432;-48
2022/08/28 02:36:55;;;;;;;21.10;17.93;;;;;;;;;;5046539;28;24446;-47
2022/08/28 02:39:20;;;;;;;22.92;18.42;;;;;;;;;;5048044;28;24504;-48
2022/08/28 02:41:45;;;;;;;18.63;16.60;;;;;;;;;;5044810;28;24454;-47
2022/08/28 02:44:11;;;;;;;19.45;17.35;;;;;;;;;;5042526;28;24452;-47
2022/08/28 02:46:36;;;;;;;19.35;17.20;;;;;;;;;;5043704;28;24431;-47
2022/08/28 02:49:01;;;;;;;20.98;17.35;;;;;;;;;;5046783;28;24423;-46
2022/08/28 02:51:29;;;;;;;20.27;17.63;;;;;;;;;;5047451;28;24534;-47
2022/08/28 02:53:54;;;;;;;22.95;18.15;;;;;;;;;;5045578;28;24461;-47
2022/08/28 02:56:19;;;;;;;24.60;18.93;;;;;;;;;;5039131;28;24942;-47
2022/08/28 02:58:44;;;;;;;22.50;18.17;;;;;;;;;;5034580;28;25049;-47
2022/08/28 03:01:11;;;;;;;22.17;17.70;;;;;;;;;;5036944;28;24419;-47
2022/08/28 03:03:37;;;;;;;22.20;18.02;;;;;;;;;;5034359;28;24886;-47
2022/08/28 03:06:02;;;;;;;23.67;18.58;;;;;;;;;;5039446;28;25010;-47
2022/08/28 03:08:28;;;;;;;21.92;19.35;;;;;;;;;;5042166;28;25020;-47
2022/08/28 03:10:54;;;;;;;26.00;20.30;;;;;;;;;;5044157;28;24437;-48
2022/08/28 03:13:19;;;;;;;21.80;18.50;;;;;;;;;;5039077;28;24980;-47
2022/08/28 03:15:44;;;;;;;25.83;19.43;;;;;;;;;;5037715;28;24554;-47
2022/08/28 03:18:10;;;;;;;19.90;17.70;;;;;;;;;;5037874;28;24535;-47
2022/08/28 03:20:35;;;;;;;22.02;18.05;;;;;;;;;;5042286;28;24894;-47
2022/08/28 03:25:45;;;;;;;24.30;20.20;;;;;;;;;;5039059;28;24423;-47
2022/08/28 03:28:10;;;;;;;23.80;20.60;;;;;;;;;;5032815;28;24893;-46
2022/08/28 03:30:35;;;;;;;21.80;19.50;;;;;;;;;;5038127;28;24436;-47
2022/08/28 03:33:01;;;;;;;25.23;20.85;;;;;;;;;;5046279;28;24506;-47
2022/08/28 03:35:26;;;;;;;24.70;20.00;;;;;;;;;;5039428;28;24475;-47
2022/08/28 03:37:51;;;;;;;20.13;18.03;;;;;;;;;;5041413;28;24427;-47
2022/08/28 03:40:16;;;;;;;22.43;18.60;;;;;;;;;;5040572;28;24419;-47
2022/08/28 03:42:41;;;;;;;20.70;18.40;;;;;;;;;;5033875;28;24427;-45
2022/08/28 03:45:07;;;;;;;23.33;18.90;;;;;;;;;;5033201;28;24431;-47
2022/08/28 03:47:34;;;;;;;20.98;18.58;;;;;;;;;;5034720;28;24518;-47
2022/08/28 03:49:59;;;;;;;22.88;18.85;;;;;;;;;;5032236;28;24433;-47
2022/08/28 03:52:24;;;;;;;21.73;18.47;;;;;;;;;;5040088;28;24427;-47
2022/08/28 03:54:50;;;;;;;24.27;18.58;;;;;;;;;;5037294;28;24424;-47
2022/08/28 03:57:19;;;;;;;19.27;16.65;;;;;;;;;;5031826;28;24471;-47
2022/08/28 03:59:45;;;;;;;19.80;17.60;;;;;;;;;;5034453;28;24426;-48
2022/08/28 04:02:10;;;;;;;21.13;16.92;;;;;;;;;;5036456;28;24785;-47
2022/08/28 04:04:36;;;;;;;18.15;16.25;;;;;;;;;;5039877;28;24971;-47
2022/08/28 04:07:01;;;;;;;16.23;14.52;;;;;;;;;;5044407;28;24419;-46
2022/08/28 04:09:26;;;;;;;18.45;14.20;;;;;;;;;;5029447;28;24416;-47
2022/08/28 04:11:52;;;;;;;20.47;14.67;;;;;;;;;;5040950;28;25036;-46
2022/08/28 04:14:17;;;;;;;17.60;14.00;;;;;;;;;;5031876;28;24438;-46
2022/08/28 04:16:42;;;;;;;16.03;13.00;;;;;;;;;;5036212;28;24427;-46
2022/08/28 04:19:07;;;;;;;17.50;13.93;;;;;;;;;;5038696;28;24891;-47
2022/08/28 04:21:33;;;;;;;15.70;13.50;;;;;;;;;;5039744;28;24708;-48
2022/08/28 04:23:58;;;;;;;18.83;13.93;;;;;;;;;;5037782;28;24968;-47
2022/08/28 04:26:24;;;;;;;18.73;14.88;;;;;;;;;;5030503;28;24809;-48
2022/08/28 04:28:49;;;;;;;15.25;13.73;;;;;;;;;;5040295;28;24427;-47
2022/08/28 04:31:15;;;;;;;16.00;14.30;;;;;;;;;;5038877;28;24436;-48
2022/08/28 04:33:40;;;;;;;14.20;12.23;;;;;;;;;;5036503;28;24935;-47
2022/08/28 04:36:07;;;;;;;15.13;11.90;;;;;;;;;;5029729;28;25017;-47
2022/08/28 04:38:32;;;;;;;14.75;12.20;;;;;;;;;;5040879;28;24427;-47
2022/08/28 04:40:58;;;;;;;14.50;13.03;;;;;;;;;;5041171;28;24506;-47
2022/08/28 04:43:23;;;;;;;14.98;13.48;;;;;;;;;;5039665;28;24512;-47
2022/08/28 04:45:48;;;;;;;16.85;12.95;;;;;;;;;;5039106;28;24427;-48
2022/08/28 04:48:13;;;;;;;16.73;14.90;;;;;;;;;;5037651;28;24836;-49
2022/08/28 04:50:39;;;;;;;17.20;14.70;;;;;;;;;;5040626;28;24419;-48
2022/08/28 04:53:04;;;;;;;16.08;14.40;;;;;;;;;;5037415;28;24435;-48
2022/08/28 04:55:30;;;;;;;15.52;13.27;;;;;;;;;;5030632;28;24480;-48
2022/08/28 04:57:55;;;;;;;18.05;15.15;;;;;;;;;;5034311;28;24987;-47
2022/08/28 05:00:20;;;;;;;17.00;15.00;;;;;;;;;;5038076;28;24427;-47
2022/08/28 05:02:45;;;;;;;18.20;14.37;;;;;;;;;;5041747;28;24427;-46
2022/08/28 05:05:10;;;;;;;15.73;13.88;;;;;;;;;;5037718;28;24503;-46
2022/08/28 05:07:35;;;;;;;16.30;14.10;;;;;;;;;;5030092;28;24431;-47
2022/08/28 05:10:01;;;;;;;15.57;13.77;;;;;;;;;;5029916;28;25040;-46
2022/08/28 05:12:26;;;;;;;13.50;12.10;;;;;;;;;;5035295;28;25156;-47
2022/08/28 05:14:51;;;;;;;13.60;12.30;;;;;;;;;;5036720;28;24948;-47
2022/08/28 05:17:16;;;;;;;13.75;12.25;;;;;;;;;;5035744;28;24981;-47
2022/08/28 05:19:42;;;;;;;17.23;12.20;;;;;;;;;;5032113;28;24461;-46
2022/08/28 05:22:10;;;;;;;13.80;11.57;;;;;;;;;;5040235;28;24515;-45
2022/08/28 05:24:36;;;;;;;12.73;10.90;;;;;;;;;;5037803;28;24439;-47
2022/08/28 05:27:02;;;;;;;13.30;11.35;;;;;;;;;;5034972;28;24431;-48
2022/08/28 05:29:27;;;;;;;15.30;12.73;;;;;;;;;;5035988;28;24427;-46
2022/08/28 05:31:52;;;;;;;12.30;11.10;;;;;;;;;;5030649;28;24977;-46
2022/08/28 05:34:17;;;;;;;12.48;10.23;;;;;;;;;;5034861;28;24427;-47
2022/08/28 05:36:42;;;;;;;15.02;11.15;;;;;;;;;;5029831;28;24432;-47
2022/08/28 05:39:08;;;;;;;13.83;10.23;;;;;;;;;;5034244;28;24992;-47
2022/08/28 05:41:34;;;;;;;12.50;9.48;;;;;;;;;;5036844;28;24437;-47
2022/08/28 05:44:01;;;;;;;12.07;10.27;;;;;;;;;;5043900;28;25060;-46
2022/08/28 05:46:27;;;;;;;11.77;8.80;;;;;;;;;;5034261;28;24470;-47
2022/08/28 05:48:52;;;;;;;13.10;7.80;;;;;;;;;;5035495;28;24443;-46
2022/08/28 05:51:19;;;;;;;8.20;6.70;;;;;;;;;;5036252;28;24431;-46
2022/08/28 05:53:44;;;;;;;9.07;7.20;;;;;;;;;;5030399;28;24457;-46
2022/08/28 05:56:11;;;;;;;11.33;7.90;;;;;;;;;;5044644;28;24450;-46
2022/08/28 05:58:38;;;;;;;11.07;7.30;;;;;;;;;;5031577;28;24419;-46
2022/08/28 06:01:05;;;;;;;8.27;6.60;;;;;;;;;;5028959;28;24438;-46
2022/08/28 06:03:30;;;;;;;9.95;7.30;;;;;;;;;;5043404;28;24461;-47
2022/08/28 06:05:55;;;;;;;8.23;6.90;;;;;;;;;;5039653;28;24809;-47
2022/08/28 06:08:22;;;;;;;10.10;7.20;;;;;;;;;;5028707;28;24424;-46
2022/08/28 06:10:47;;;;;;;10.48;6.70;;;;;;;;;;5039570;28;24435;-47
2022/08/28 06:13:12;;;;;;;10.63;7.07;;;;;;;;;;5038500;28;24837;-46
2022/08/28 06:15:44;;;;;;;7.30;6.50;;;;;;;;;;5040981;28;24920;-47
2022/08/28 06:18:09;;;;;;;11.35;7.00;;;;;;;;;;5043623;28;24432;-46
2022/08/28 06:20:36;;;;;;;10.20;6.70;;;;;;;;;;5034732;28;24435;-47
2022/08/28 06:23:01;;;;;;;10.52;7.20;;;;;;;;;;5037775;28;24517;-46
2022/08/28 06:25:26;;;;;;;9.38;6.57;;;;;;;;;;5041178;28;24965;-47
2022/08/28 06:27:51;;;;;;;10.68;6.38;;;;;;;;;;5044563;28;24431;-47
2022/08/28 06:30:17;;;;;;;8.85;6.20;;;;;;;;;;5035866;28;24545;-47
2022/08/28 06:32:42;;;;;;;7.30;6.60;;;;;;;;;;5030798;28;24988;-47
2022/08/28 06:35:07;;;;;;;9.52;6.25;;;;;;;;;;5029372;28;24432;-47
2022/08/28 06:37:32;;;;;;;8.20;5.70;;;;;;;;;;5038501;28;24423;-47
2022/08/28 06:39:57;;;;;;;7.68;5.75;;;;;;;;;;5038745;28;24434;-47
2022/08/28 06:42:23;;;;;;;7.88;5.40;;;;;;;;;;5048086;28;24777;-47
2022/08/28 06:44:48;;;;;;;10.87;5.60;;;;;;;;;;5043724;28;24574;-47
2022/08/28 06:47:14;;;;;;;7.82;5.40;;;;;;;;;;5045249;28;24522;-47
2022/08/28 06:49:39;;;;;;;6.60;5.07;;;;;;;;;;5042407;28;24450;-47
2022/08/28 06:52:04;;;;;;;7.63;5.43;;;;;;;;;;5040434;28;25133;-47
2022/08/28 06:54:29;;;;;;;5.90;4.80;;;;;;;;;;5037113;28;24978;-47
2022/08/28 06:56:55;;;;;;;9.23;4.80;;;;;;;;;;5041126;28;24549;-48
2022/08/28 06:59:20;;;;;;;6.03;4.10;;;;;;;;;;5043092;28;24415;-47
2022/08/28 07:01:45;;;;;;;7.20;4.50;;;;;;;;;;5035258;28;24478;-47
2022/08/28 07:04:12;;;;;;;7.40;5.10;;;;;;;;;;5038195;28;24832;-48
2022/08/28 07:06:39;;;;;;;10.40;5.10;;;;;;;;;;5041100;28;24598;-47
2022/08/28 07:09:06;;;;;;;6.90;4.40;;;;;;;;;;5039006;28;24420;-47
2022/08/28 07:11:32;;;;;;;9.47;5.00;;;;;;;;;;5035870;28;24423;-47
2022/08/28 07:13:58;;;;;;;7.22;4.90;;;;;;;;;;5040328;28;24431;-47
2022/08/28 07:16:25;;;;;;;7.07;4.80;;;;;;;;;;5032154;28;25364;-47
2022/08/28 07:18:50;;;;;;;6.77;4.67;;;;;;;;;;5041341;28;25371;-47
2022/08/28 07:21:15;;;;;;;9.20;4.50;;;;;;;;;;5032798;28;24419;-48
2022/08/28 07:23:41;;;;;;;8.07;4.80;;;;;;;;;;5039912;28;24455;-47
2022/08/28 07:26:14;;;;;;;5.05;3.88;;;;;;;;;;5038783;28;24511;-47
2022/08/28 07:28:39;;;;;;;7.13;4.67;;;;;;;;;;5043371;28;24541;-47
2022/08/28 07:31:07;;;;;;;6.60;4.50;;;;;;;;;;5040895;28;24522;-48
2022/08/28 07:33:33;;;;;;;10.32;4.60;;;;;;;;;;5033188;28;25036;-46
2022/08/28 07:35:58;;;;;;;10.30;4.18;;;;;;;;;;5040863;28;24537;-47
2022/08/28 07:38:24;;;;;;;5.63;4.30;;;;;;;;;;5034930;28;24428;-47
2022/08/28 07:40:49;;;;;;;6.83;4.57;;;;;;;;;;5039912;28;24918;-46
2022/08/28 07:46:04;;;;;;;7.53;4.10;;;;;;;;;;5031028;28;24524;-48
2022/08/28 07:48:29;;;;;;;7.25;4.18;;;;;;;;;;5035561;28;24435;-47
2022/08/28 07:50:54;;;;;;;6.97;3.80;;;;;;;;;;5042340;28;24464;-47
2022/08/28 07:53:20;;;;;;;6.93;4.23;;;;;;;;;;5046034;28;24754;-48
2022/08/28 07:55:45;;;;;;;4.93;3.90;;;;;;;;;;5037408;28;25015;-47
2022/08/28 07:58:11;;;;;;;6.97;4.00;;;;;;;;;;5040282;28;24426;-48
2022/08/28 08:00:37;;;;;;;6.73;4.00;;;;;;;;;;5030566;28;24943;-47
2022/08/28 08:03:02;;;;;;;6.95;4.18;;;;;;;;;;5037959;28;24786;-47
2022/08/28 08:05:27;;;;;;;5.90;4.00;;;;;;;;;;5045114;28;25019;-47
2022/08/28 08:07:52;;;;;;;5.30;3.60;;;;;;;;;;5043654;28;24774;-47
2022/08/28 08:10:17;;;;;;;7.20;3.93;;;;;;;;;;5034737;28;25041;-47
2022/08/28 08:12:43;;;;;;;5.17;3.70;;;;;;;;;;5032438;28;24422;-47
2022/08/28 08:15:09;;;;;;;7.40;3.57;;;;;;;;;;5032807;28;24981;-48
2022/08/28 08:17:34;;;;;;;8.27;3.80;;;;;;;;;;5039782;28;24502;-47
2022/08/28 08:20:00;;;;;;;6.28;3.80;;;;;;;;;;5056262;28;24500;-48
2022/08/28 08:22:25;;;;;;;5.60;3.50;;;;;;;;;;5051003;28;24976;-47
2022/08/28 08:24:54;;;;;;;7.37;4.00;;;;;;;;;;5057426;28;24408;-47
2022/08/28 08:27:19;;;;;;;7.65;3.80;;;;;;;;;;5043134;28;24554;-48
2022/08/28 08:29:44;;;;;;;8.60;3.67;;;;;;;;;;5026999;28;24552;-47
2022/08/28 08:32:09;;;;;;;8.60;3.70;;;;;;;;;;5040732;28;25012;-47
2022/08/28 08:34:37;;;;;;;7.37;3.90;;;;;;;;;;5056143;28;24556;-47
2022/08/28 08:37:04;;;;;;;6.88;3.85;;;;;;;;;;5048818;28;24422;-48
2022/08/28 08:39:29;;;;;;;5.03;3.20;;;;;;;;;;5043882;28;24446;-47
2022/08/28 08:41:56;;;;;;;5.13;3.35;;;;;;;;;;5036608;28;24985;-46
2022/08/28 08:44:33;;;;;;;6.60;3.80;;;;;;;;;;5034444;28;24407;-47
2022/08/28 08:47:07;;;;;;;6.88;3.85;;;;;;;;;;5034459;28;24992;-47
2022/08/28 08:49:34;;;;;;;7.15;3.72;;;;;;;;;;5030291;28;24463;-47
2022/08/28 08:52:02;;;;;;;7.20;3.50;;;;;;;;;;5025144;28;24403;-46
2022/08/28 08:54:28;;;;;;;8.50;4.40;;;;;;;;;;5039288;28;24416;-46
2022/08/28 08:56:54;;;;;;;4.90;3.63;;;;;;;;;;5026386;28;24479;-46
2022/08/28 08:59:21;;;;;;;7.35;3.53;;;;;;;;;;5027837;28;24615;-45
2022/08/28 09:02:10;;;;;;;6.38;3.70;;;;;;;;;;5026017;28;24800;-46
2022/08/28 09:04:42;;;;;;;7.43;3.85;;;;;;;;;;5026693;28;24392;-52
2022/08/28 09:07:15;;;;;;;7.80;3.60;;;;;;;;;;5026609;28;24424;-44
2022/08/28 09:09:41;;;;;;;8.15;3.88;;;;;;;;;;5025977;28;24810;-46
2022/08/28 09:12:08;;;;;;;7.90;4.10;;;;;;;;;;5027263;28;24403;-46
2022/08/28 09:14:49;;;;;;;8.48;4.40;;;;;;;;;;5033907;28;24434;-46
2022/08/28 09:17:16;;;;;;;6.95;4.20;;;;;;;;;;5045106;28;24449;-45
2022/08/28 09:19:41;;;;;;;6.97;4.10;;;;;;;;;;5043690;28;25086;-45
2022/08/28 09:22:06;;;;;;;9.77;4.60;;;;;;;;;;5034684;28;24440;-46
2022/08/28 09:24:34;;;;;;;7.37;4.50;;;;;;;;;;5026300;28;24463;-46
2022/08/28 09:27:02;;;;;;;6.35;4.10;;;;;;;;;;5025896;28;25000;-47
2022/08/28 09:29:30;;;;;;;9.13;4.70;;;;;;;;;;5028575;28;24567;-46
2022/08/28 09:31:56;;;;;;;11.95;5.20;;;;;;;;;;5045574;28;24412;-46
2022/08/28 09:34:29;;;;;;;10.25;5.25;;;;;;;;;;5046149;28;24415;-45
2022/08/28 09:36:56;;;;;;;10.20;5.20;;;;;;;;;;5045589;28;24438;-46
2022/08/28 09:39:25;;;;;;;7.40;4.97;;;;;;;;;;5044361;28;24435;-47
2022/08/28 09:44:48;;;;;;;10.95;6.32;;;;;;;;;;5026179;28;24392;-46
2022/08/28 09:47:33;;;;;;;8.65;5.20;;;;;;;;;;5026045;28;24407;-47
2022/08/28 09:50:13;;;;;;;9.38;5.65;;;;;;;;;;5029661;28;24431;-46
2022/08/28 09:52:38;;;;;;;11.40;5.60;;;;;;;;;;5037662;28;24444;-46
2022/08/28 09:55:04;;;;;;;8.23;5.13;;;;;;;;;;5026092;28;24486;-46
2022/08/28 09:57:29;;;;;;;9.53;5.63;;;;;;;;;;5034357;28;24453;-46
2022/08/28 09:59:55;;;;;;;6.55;4.60;;;;;;;;;;5043660;28;24531;-45
2022/08/28 10:02:23;;;;;;;8.43;4.80;;;;;;;;;;5044846;28;24858;-46
2022/08/28 10:04:51;;;;;;;6.97;5.53;;;;;;;;;;5040116;28;24434;-45
2022/08/28 10:07:36;;;;;;;12.00;5.45;;;;;;;;;;5042337;28;24479;-46
2022/08/28 10:10:10;;;;;;;11.25;5.20;;;;;;;;;;5049430;28;24399;-46
2022/08/28 10:12:38;;;;;;;7.38;4.97;;;;;;;;;;5031361;28;24568;-46
2022/08/28 10:15:09;;;;;;;5.28;4.43;;;;;;;;;;5048516;28;24407;-50
2022/08/28 10:17:47;;;;;;;7.78;4.60;;;;;;;;;;5049151;28;24538;-46
2022/08/28 10:20:16;;;;;;;6.05;4.60;;;;;;;;;;5046969;28;24415;-46
2022/08/28 10:23:01;;;;;;;7.78;4.82;;;;;;;;;;5048184;28;24773;-46
2022/08/28 10:25:39;;;;;;;8.98;4.72;;;;;;;;;;5044375;28;24802;-46
2022/08/28 10:28:15;;;;;;;9.00;4.38;;;;;;;;;;5038962;28;25003;-47
2022/08/28 10:30:51;;;;;;;6.38;4.50;;;;;;;;;;5037652;28;24958;-47
2022/08/28 10:33:25;;;;;;;9.18;5.07;;;;;;;;;;5042294;28;24434;-47
2022/08/28 10:36:10;;;;;;;8.30;4.57;;;;;;;;;;5046509;28;24743;-47
2022/08/28 10:38:38;;;;;;;9.02;4.30;;;;;;;;;;5046686;28;24510;-46
2022/08/28 10:41:22;;;;;;;9.27;4.60;;;;;;;;;;5046861;28;24450;-46
2022/08/28 10:43:49;;;;;;;5.40;4.10;;;;;;;;;;5048775;28;24400;-46
2022/08/28 10:46:17;;;;;;;9.18;4.95;;;;;;;;;;5046624;28;24904;-46
2022/08/28 10:48:47;;;;;;;8.57;4.78;;;;;;;;;;5031500;28;24978;-46
2022/08/28 10:51:16;;;;;;;7.90;4.90;;;;;;;;;;5028288;28;24408;-46
2022/08/28 10:53:47;;;;;;;8.38;4.60;;;;;;;;;;5028781;28;24400;-46
2022/08/28 10:56:16;;;;;;;7.93;3.95;;;;;;;;;;5030573;28;24424;-46
2022/08/28 10:58:43;;;;;;;7.20;4.03;;;;;;;;;;5028823;28;24395;-46
2022/08/28 11:01:13;;;;;;;8.32;4.47;;;;;;;;;;5040376;28;25308;-47
2022/08/28 11:03:43;;;;;;;7.33;4.20;;;;;;;;;;5042606;28;24829;-47
2022/08/28 11:06:20;;;;;;;5.80;4.55;;;;;;;;;;5036354;28;25028;-47
2022/08/28 11:08:51;;;;;;;4.93;4.00;;;;;;;;;;5034212;28;24435;-46
2022/08/28 11:11:36;;;;;;;8.40;4.80;;;;;;;;;;5034455;28;25174;-44
2022/08/28 11:14:01;;;;;;;6.95;4.88;;;;;;;;;;5030285;28;24426;-45
2022/08/28 11:16:26;;;;;;;6.90;4.80;;;;;;;;;;5028614;28;24768;-46
2022/08/28 11:18:56;;;;;;;8.98;6.28;;;;;;;;;;5036291;28;24973;-46
2022/08/28 11:21:25;;;;;;;7.93;4.90;;;;;;;;;;5038405;28;25110;-46
2022/08/28 11:23:55;;;;;;;5.88;4.72;;;;;;;;;;5036776;28;24983;-46
2022/08/28 11:26:31;;;;;;;5.70;4.60;;;;;;;;;;5046706;28;24532;-47
2022/08/28 11:28:56;;;;;;;6.30;4.75;;;;;;;;;;5047048;28;24612;-48
2022/08/28 11:31:26;;;;;;;6.40;4.67;;;;;;;;;;5036220;28;24818;-48
2022/08/28 11:33:51;;;;;;;6.97;5.00;;;;;;;;;;5042142;28;24510;-47
2022/08/28 11:36:16;;;;;;;7.78;4.60;;;;;;;;;;5040424;28;24516;-48
2022/08/28 11:38:42;;;;;;;6.22;4.45;;;;;;;;;;5033533;28;24981;-47
2022/08/28 11:41:13;;;;;;;5.00;4.50;;;;;;;;;;5037064;28;24424;-48
2022/08/28 11:43:39;;;;;;;5.90;4.10;;;;;;;;;;5031732;28;24423;-48
2022/08/28 11:46:06;;;;;;;5.57;3.90;;;;;;;;;;5033009;28;24428;-47
2022/08/28 11:48:46;;;;;;;8.23;4.50;;;;;;;;;;5038012;28;24478;-47
2022/08/28 11:51:17;;;;;;;5.60;4.10;;;;;;;;;;5030040;28;25231;-48
2022/08/28 11:53:49;;;;;;;5.95;4.50;;;;;;;;;;5030196;28;24431;-48
2022/08/28 11:56:14;;;;;;;6.75;4.50;;;;;;;;;;5037368;28;24423;-47
2022/08/28 11:58:45;;;;;;;6.38;4.30;;;;;;;;;;5041546;28;24438;-47
2022/08/28 12:01:12;;;;;;;6.75;4.70;;;;;;;;;;5029513;28;24438;-48
2022/08/28 12:03:57;;;;;;;5.55;4.55;;;;;;;;;;5044637;28;25126;-47
2022/08/28 12:06:41;;;;;;;5.30;4.70;;;;;;;;;;5041495;28;24504;-47
2022/08/28 12:09:10;;;;;;;5.82;4.70;;;;;;;;;;5042372;28;24431;-47
2022/08/28 12:11:38;;;;;;;6.75;4.30;;;;;;;;;;5034135;28;24453;-47
2022/08/28 12:14:04;;;;;;;6.05;4.53;;;;;;;;;;5041445;28;24477;-49
2022/08/28 12:16:50;;;;;;;6.15;5.00;;;;;;;;;;5033389;28;24455;-48
2022/08/28 12:19:25;;;;;;;12.07;8.77;;;;;;;;;;5043692;28;24423;-48
2022/08/28 12:21:50;;;;;;;7.27;5.80;;;;;;;;;;5039838;28;24529;-48
2022/08/28 12:24:20;;;;;;;4.67;4.23;;;;;;;;;;5034093;28;24522;-46
2022/08/28 12:26:48;;;;;;;6.70;4.28;;;;;;;;;;5029805;28;24504;-47
2022/08/28 12:29:24;;;;;;;6.80;4.50;;;;;;;;;;5050097;28;24786;-46
2022/08/28 12:32:10;;;;;;;5.68;3.95;;;;;;;;;;5042138;28;24431;-46
2022/08/28 12:34:51;;;;;;;5.35;4.00;;;;;;;;;;5044268;28;24455;-47
2022/08/28 12:37:19;;;;;;;6.00;3.70;;;;;;;;;;5042107;28;24439;-47
2022/08/28 12:39:45;;;;;;;5.57;3.67;;;;;;;;;;5031690;28;24461;-48
2022/08/28 12:42:17;;;;;;;6.32;4.13;;;;;;;;;;5034496;28;25221;-48
2022/08/28 12:44:43;;;;;;;5.78;3.53;;;;;;;;;;5023039;28;24980;-48
2022/08/28 12:47:12;;;;;;;5.00;3.50;;;;;;;;;;5029624;28;24501;-47
2022/08/28 12:49:37;;;;;;;5.82;3.50;;;;;;;;;;5023783;28;24465;-47
2022/08/28 12:52:06;;;;;;;6.60;3.90;;;;;;;;;;5046559;28;24974;-46
2022/08/28 12:54:31;;;;;;;5.20;4.00;;;;;;;;;;5035737;28;24520;-46
2022/08/28 12:56:56;;;;;;;5.45;3.70;;;;;;;;;;5031505;28;24978;-46
2022/08/28 12:59:31;;;;;;;6.60;3.97;;;;;;;;;;5029325;28;24412;-47
2022/08/28 13:02:01;;;;;;;4.85;3.75;;;;;;;;;;5023791;28;24473;-47
2022/08/28 13:04:29;;;;;;;6.77;4.10;;;;;;;;;;5042080;28;24435;-47
2022/08/28 13:07:12;;;;;;;5.90;4.25;;;;;;;;;;5033880;28;24818;-47
2022/08/28 13:09:42;;;;;;;7.30;4.00;;;;;;;;;;5032738;28;24427;-48
2022/08/28 13:12:15;;;;;;;6.23;4.20;;;;;;;;;;5036233;28;24550;-47
2022/08/28 13:14:47;;;;;;;9.13;4.17;;;;;;;;;;5024552;28;24476;-47
2022/08/28 13:17:13;;;;;;;6.90;4.20;;;;;;;;;;5023196;28;24400;-47
2022/08/28 13:19:38;;;;;;;8.07;5.90;;;;;;;;;;5026292;28;24458;-47
2022/08/28 13:22:07;;;;;;;5.20;4.07;;;;;;;;;;5025389;28;24976;-48
2022/08/28 13:24:37;;;;;;;5.28;3.90;;;;;;;;;;5023833;28;24888;-48
2022/08/28 13:27:04;;;;;;;5.35;3.90;;;;;;;;;;5022834;28;24424;-48
2022/08/28 13:29:30;;;;;;;5.60;3.90;;;;;;;;;;5038733;28;24442;-48
2022/08/28 13:31:58;;;;;;;6.53;3.85;;;;;;;;;;5030738;28;24431;-48
2022/08/28 13:34:24;;;;;;;4.20;3.67;;;;;;;;;;5032051;28;24474;-48
2022/08/28 13:36:58;;;;;;;5.22;3.65;;;;;;;;;;5027336;28;24426;-48
2022/08/28 13:39:24;;;;;;;4.20;3.50;;;;;;;;;;5031524;28;24495;-48
2022/08/28 13:41:51;;;;;;;4.30;3.70;;;;;;;;;;5035103;28;24411;-47
2022/08/28 13:44:23;;;;;;;5.53;3.67;;;;;;;;;;5045241;28;24561;-47
2022/08/28 13:46:48;;;;;;;5.53;3.38;;;;;;;;;;5046737;28;24494;-47
2022/08/28 13:49:13;;;;;;;4.35;3.20;;;;;;;;;;5041475;28;25024;-47
2022/08/28 13:51:39;;;;;;;5.28;3.58;;;;;;;;;;5031646;28;24474;-48
2022/08/28 13:54:04;;;;;;;4.10;3.30;;;;;;;;;;5025824;28;24453;-47
2022/08/28 13:56:29;;;;;;;3.70;3.30;;;;;;;;;;5026575;28;24742;-47
2022/08/28 13:58:54;;;;;;;4.80;3.20;;;;;;;;;;5034023;28;24484;-47
2022/08/28 14:01:22;;;;;;;3.80;3.30;;;;;;;;;;5034373;28;24454;-47
2022/08/28 14:03:47;;;;;;;7.43;3.70;;;;;;;;;;5026329;28;24454;-48
2022/08/28 14:06:15;;;;;;;5.50;4.07;;;;;;;;;;5027485;28;25037;-47
2022/08/28 14:08:42;;;;;;;7.13;3.63;;;;;;;;;;5025831;28;24466;-48
2022/08/28 14:11:07;;;;;;;4.80;3.50;;;;;;;;;;5031855;28;24423;-47
2022/08/28 14:13:32;;;;;;;5.43;3.50;;;;;;;;;;5048986;28;24410;-47
2022/08/28 14:15:58;;;;;;;6.03;3.80;;;;;;;;;;5047821;28;25015;-47
2022/08/28 14:18:24;;;;;;;6.70;3.70;;;;;;;;;;5048103;28;24554;-48
2022/08/28 14:20:49;;;;;;;5.30;3.70;;;;;;;;;;5048193;28;25144;-48
2022/08/28 14:23:14;;;;;;;5.60;3.80;;;;;;;;;;5032313;28;25377;-47
2022/08/28 14:25:44;;;;;;;5.00;3.73;;;;;;;;;;5030690;28;24972;-45
2022/08/28 14:28:09;;;;;;;7.50;3.80;;;;;;;;;;5034299;28;24431;-46
2022/08/28 14:30:39;;;;;;;5.33;3.70;;;;;;;;;;5040565;28;24837;-46
2022/08/28 14:33:04;;;;;;;5.60;3.60;;;;;;;;;;5048343;28;25036;-46
2022/08/28 14:35:29;;;;;;;5.45;3.70;;;;;;;;;;5045107;28;24432;-46
2022/08/28 14:37:54;;;;;;;4.88;3.67;;;;;;;;;;5030411;28;24847;-47
2022/08/28 14:40:20;;;;;;;4.35;3.60;;;;;;;;;;5028878;28;24399;-46
2022/08/28 14:42:45;;;;;;;4.30;3.47;;;;;;;;;;5045157;28;24480;-47
2022/08/28 14:45:10;;;;;;;5.87;3.80;;;;;;;;;;5038504;28;24430;-47
2022/08/28 14:47:38;;;;;;;5.37;3.30;;;;;;;;;;5045186;28;24443;-48